createdAt,value
2022-12-09T00:00:09.435Z,31.30
2022-12-09T00:01:31.483Z,28.80
2022-12-09T00:02:33.321Z,32.10
2022-12-09T00:03:36.057Z,31.30
2022-12-09T00:04:37.914Z,31.40
2022-12-09T00:05:40.617Z,32.10
2022-12-09T00:06:42.609Z,29.90
2022-12-09T00:07:44.439Z,30.50
2022-12-09T00:08:46.849Z,32.90
2022-12-09T00:09:48.897Z,30.30
2022-12-09T00:10:50.985Z,32.90
2022-12-09T00:11:53.050Z,30.70
2022-12-09T00:12:55.719Z,30.70
2022-12-09T00:13:59.041Z,29.70
2022-12-09T00:15:00.781Z,33.10
2022-12-09T00:16:21.986Z,33.90
2022-12-09T00:17:23.768Z,31.40
2022-12-09T00:18:26.066Z,29.80
2022-12-09T00:19:27.816Z,32.20
2022-12-09T00:20:29.820Z,31.30
2022-12-09T00:21:33.274Z,29.90
2022-12-09T00:22:34.922Z,30.20
2022-12-09T00:23:36.817Z,32.20
2022-12-09T00:24:38.716Z,31.50
2022-12-09T00:25:40.659Z,29.50
2022-12-09T00:26:42.604Z,32.70
2022-12-09T00:27:44.372Z,30.20
2022-12-09T00:28:47.953Z,31.20
2022-12-09T00:29:49.547Z,31.10
2022-12-09T00:30:51.679Z,28.80
2022-12-09T00:31:53.945Z,28.70
2022-12-09T00:32:55.782Z,31.10
2022-12-09T00:34:01.877Z,39.10
2022-12-09T00:35:04.315Z,31.30
2022-12-09T00:36:09.298Z,32.50
2022-12-09T00:37:11.362Z,30.40
2022-12-09T00:38:13.203Z,31.40
2022-12-09T00:39:15.997Z,28.50
2022-12-09T00:40:17.757Z,31.70
2022-12-09T00:41:19.772Z,27.80
2022-12-09T00:42:21.795Z,28.80
2022-12-09T00:43:23.543Z,28.60
2022-12-09T00:44:25.241Z,32.10
2022-12-09T00:45:27.009Z,27.80
2022-12-09T00:46:29.101Z,31.20
2022-12-09T00:47:31.090Z,31.00
2022-12-09T00:48:37.779Z,30.10
2022-12-09T00:49:40.113Z,32.40
2022-12-09T00:50:41.830Z,31.30
2022-12-09T00:51:44.612Z,31.70
2022-12-09T00:52:46.259Z,31.50
2022-12-09T00:53:53.822Z,29.60
2022-12-09T00:54:56.023Z,31.20
2022-12-09T00:55:58.025Z,27.40
2022-12-09T00:56:59.941Z,31.40
2022-12-09T00:58:02.015Z,30.60
2022-12-09T00:59:03.996Z,29.30
2022-12-09T01:00:07.149Z,30.80
2022-12-09T01:01:09.667Z,31.40
2022-12-09T01:02:11.787Z,29.60
2022-12-09T01:03:16.320Z,30.60
2022-12-09T01:04:18.245Z,29.90
2022-12-09T01:05:19.992Z,30.20
2022-12-09T01:06:25.540Z,29.10
2022-12-09T01:07:27.469Z,25.60
2022-12-09T01:08:29.980Z,31.30
2022-12-09T01:09:34.145Z,30.10
2022-12-09T01:10:38.769Z,27.80
2022-12-09T01:11:40.521Z,29.70
2022-12-09T01:12:42.653Z,28.20
2022-12-09T01:13:45.127Z,28.50
2022-12-09T01:14:47.131Z,26.80
2022-12-09T01:15:49.022Z,27.10
2022-12-09T01:16:50.880Z,31.40
2022-12-09T01:17:52.845Z,30.30
2022-12-09T01:18:57.313Z,26.60
2022-12-09T01:19:59.069Z,26.80
2022-12-09T01:21:01.495Z,27.50
2022-12-09T01:22:03.474Z,28.60
2022-12-09T01:23:05.395Z,28.10
2022-12-09T01:24:11.608Z,25.40
2022-12-09T01:25:14.050Z,24.30
2022-12-09T01:26:16.742Z,26.50
2022-12-09T01:27:18.519Z,25.20
2022-12-09T01:28:20.660Z,24.50
2022-12-09T01:29:22.347Z,25.90
2022-12-09T01:30:24.417Z,26.00
2022-12-09T01:31:26.546Z,25.00
2022-12-09T01:32:28.352Z,25.00
2022-12-09T01:33:30.104Z,23.50
2022-12-09T01:34:32.007Z,27.60
2022-12-09T01:35:33.641Z,23.30
2022-12-09T01:36:35.670Z,23.30
2022-12-09T01:37:38.988Z,24.40
2022-12-09T01:38:41.450Z,26.10
2022-12-09T01:39:43.817Z,23.40
2022-12-09T01:40:46.561Z,23.80
2022-12-09T01:41:51.506Z,23.00
2022-12-09T01:42:53.158Z,22.70
2022-12-09T01:44:24.414Z,25.90
2022-12-09T01:45:36.019Z,24.30
2022-12-09T01:46:38.181Z,24.20
2022-12-09T01:47:40.248Z,24.30
2022-12-09T01:48:45.930Z,24.00
2022-12-09T01:49:48.869Z,25.50
2022-12-09T01:51:00.055Z,23.00
2022-12-09T01:52:18.118Z,20.80
2022-12-09T01:53:27.092Z,25.40
2022-12-09T01:54:30.291Z,23.70
2022-12-09T01:55:33.987Z,24.70
2022-12-09T01:56:38.609Z,20.60
2022-12-09T01:57:44.348Z,24.60
2022-12-09T01:58:47.874Z,24.10
2022-12-09T01:59:52.156Z,22.60
2022-12-09T02:00:55.495Z,23.50
2022-12-09T02:02:00.262Z,20.40
2022-12-09T02:03:02.614Z,24.00
2022-12-09T02:04:06.070Z,22.70
2022-12-09T02:05:08.742Z,24.20
2022-12-09T02:06:10.801Z,21.60
2022-12-09T02:07:12.851Z,23.50
2022-12-09T02:08:18.623Z,22.70
2022-12-09T02:09:20.926Z,22.70
2022-12-09T02:10:24.727Z,24.20
2022-12-09T02:11:31.964Z,24.40
2022-12-09T02:12:58.342Z,22.30
2022-12-09T02:14:26.239Z,22.20
2022-12-09T02:15:32.171Z,22.10
2022-12-09T02:16:53.598Z,21.80
2022-12-09T02:18:02.581Z,26.10
2022-12-09T02:19:36.813Z,22.60
2022-12-09T02:21:04.576Z,23.70
2022-12-09T02:22:08.011Z,23.70
2022-12-09T02:23:16.428Z,24.20
2022-12-09T02:24:28.083Z,24.60
2022-12-09T02:25:39.437Z,22.00
2022-12-09T02:26:48.472Z,24.10
2022-12-09T02:28:19.342Z,26.10
2022-12-09T02:32:45.547Z,25.40
2022-12-09T02:34:16.704Z,27.30
2022-12-09T02:35:32.177Z,26.40
2022-12-09T02:36:59.806Z,25.90
2022-12-09T02:38:16.845Z,23.20
2022-12-09T02:39:25.660Z,26.70
2022-12-09T02:40:33.280Z,23.90
2022-12-09T02:41:41.161Z,23.10
2022-12-09T02:42:46.531Z,23.20
2022-12-09T02:43:53.375Z,23.90
2022-12-09T02:45:02.535Z,22.40
2022-12-09T02:46:07.860Z,21.60
2022-12-09T02:47:14.663Z,23.10
2022-12-09T02:48:22.351Z,25.20
2022-12-09T02:49:27.697Z,24.20
2022-12-09T02:50:34.356Z,22.30
2022-12-09T02:51:41.526Z,24.20
2022-12-09T02:52:45.011Z,22.20
2022-12-09T02:53:51.592Z,24.80
2022-12-09T02:54:54.771Z,21.00
2022-12-09T02:55:58.066Z,19.40
2022-12-09T02:57:05.839Z,22.80
2022-12-09T02:58:07.962Z,18.60
2022-12-09T02:59:10.708Z,20.20
2022-12-09T03:00:15.028Z,21.90
2022-12-09T03:01:31.791Z,20.30
2022-12-09T03:02:42.948Z,22.30
2022-12-09T03:03:45.416Z,19.50
2022-12-09T03:05:09.580Z,23.10
2022-12-09T03:06:17.873Z,21.50
2022-12-09T03:07:31.685Z,20.60
2022-12-09T03:08:56.715Z,18.50
2022-12-09T03:10:11.522Z,22.00
2022-12-09T03:11:17.204Z,20.30
2022-12-09T03:12:21.298Z,19.70
2022-12-09T03:13:41.762Z,18.70
2022-12-09T03:14:49.080Z,17.90
2022-12-09T03:16:00.981Z,19.80
2022-12-09T03:17:13.700Z,18.30
2022-12-09T03:18:18.622Z,18.00
2022-12-09T03:19:42.854Z,19.40
2022-12-09T03:20:47.031Z,19.90
2022-12-09T03:21:52.382Z,18.40
2022-12-09T03:22:58.482Z,19.10
2022-12-09T03:24:01.742Z,18.00
2022-12-09T03:25:14.183Z,18.20
2022-12-09T03:26:18.064Z,19.00
2022-12-09T03:27:26.060Z,18.70
2022-12-09T03:28:33.681Z,17.60
2022-12-09T03:29:40.508Z,17.70
2022-12-09T03:30:44.917Z,17.90
2022-12-09T03:31:48.655Z,20.80
2022-12-09T03:32:52.515Z,19.20
2022-12-09T03:33:57.914Z,18.10
2022-12-09T03:35:08.611Z,18.60
2022-12-09T03:36:13.732Z,18.80
2022-12-09T03:37:18.245Z,19.80
2022-12-09T03:38:22.893Z,18.70
2022-12-09T03:39:29.253Z,17.20
2022-12-09T03:40:35.181Z,17.40
2022-12-09T03:41:38.666Z,19.50
2022-12-09T03:42:53.173Z,17.50
2022-12-09T03:43:59.207Z,17.80
2022-12-09T03:45:06.075Z,17.10
2022-12-09T03:46:08.375Z,19.90
2022-12-09T03:47:10.745Z,16.10
2022-12-09T03:48:13.251Z,17.70
2022-12-09T03:49:15.489Z,15.90
2022-12-09T03:50:17.695Z,19.40
2022-12-09T03:51:30.191Z,18.20
2022-12-09T03:53:04.542Z,18.10
2022-12-09T03:54:15.173Z,16.00
2022-12-09T03:56:43.519Z,16.70
2022-12-09T03:57:51.038Z,17.90
2022-12-09T03:58:54.554Z,19.40
2022-12-09T04:00:00.721Z,17.60
2022-12-09T04:01:03.026Z,16.00
2022-12-09T04:02:06.653Z,17.00
2022-12-09T04:03:12.766Z,17.60
2022-12-09T04:04:15.359Z,18.20
2022-12-09T04:05:17.228Z,17.70
2022-12-09T04:06:19.035Z,17.10
2022-12-09T04:07:20.857Z,18.40
2022-12-09T04:08:23.334Z,19.10
2022-12-09T04:09:25.337Z,17.50
2022-12-09T04:10:27.663Z,17.30
2022-12-09T04:11:31.602Z,17.50
2022-12-09T04:12:33.383Z,19.40
2022-12-09T04:13:35.229Z,20.00
2022-12-09T04:14:37.091Z,17.10
2022-12-09T04:15:39.237Z,16.90
2022-12-09T04:16:40.984Z,18.30
2022-12-09T04:17:43.237Z,19.10
2022-12-09T04:18:45.743Z,19.80
2022-12-09T04:19:47.995Z,18.70
2022-12-09T04:20:49.885Z,20.30
2022-12-09T04:21:51.672Z,19.80
2022-12-09T04:22:53.380Z,20.00
2022-12-09T04:23:55.557Z,18.60
2022-12-09T04:24:57.311Z,20.20
2022-12-09T04:25:59.098Z,21.60
2022-12-09T04:27:00.680Z,18.50
2022-12-09T04:28:02.869Z,22.20
2022-12-09T04:29:05.015Z,24.90
2022-12-09T04:30:07.886Z,22.20
2022-12-09T04:31:12.785Z,21.70
2022-12-09T04:32:14.694Z,22.80
2022-12-09T04:33:16.607Z,22.30
2022-12-09T04:34:18.664Z,23.60
2022-12-09T04:35:20.507Z,21.00
2022-12-09T04:36:22.492Z,21.20
2022-12-09T04:37:25.755Z,21.30
2022-12-09T04:38:27.635Z,20.40
2022-12-09T04:39:30.232Z,22.70
2022-12-09T04:40:31.923Z,22.80
2022-12-09T04:41:33.768Z,22.40
2022-12-09T04:42:35.399Z,21.30
2022-12-09T04:43:37.190Z,20.00
2022-12-09T04:44:39.251Z,23.40
2022-12-09T04:45:41.369Z,23.10
2022-12-09T04:46:44.196Z,20.10
2022-12-09T04:47:46.144Z,21.30
2022-12-09T04:48:48.656Z,22.60
2022-12-09T04:49:50.857Z,20.80
2022-12-09T04:50:52.569Z,22.40
2022-12-09T04:51:54.590Z,21.40
2022-12-09T04:52:56.665Z,20.00
2022-12-09T04:53:58.623Z,22.70
2022-12-09T04:55:00.414Z,21.50
2022-12-09T04:56:05.466Z,21.20
2022-12-09T04:57:08.506Z,21.90
2022-12-09T04:58:10.248Z,23.20
2022-12-09T04:59:12.155Z,21.90
2022-12-09T05:00:15.229Z,21.50
2022-12-09T05:01:24.942Z,23.50
2022-12-09T05:02:32.621Z,23.00
2022-12-09T05:03:35.945Z,21.20
2022-12-09T05:04:38.677Z,21.40
2022-12-09T05:05:40.968Z,21.30
2022-12-09T05:06:43.312Z,22.30
2022-12-09T05:07:47.495Z,21.40
2022-12-09T05:08:50.130Z,21.70
2022-12-09T05:09:52.427Z,21.20
2022-12-09T05:10:54.598Z,20.50
2022-12-09T05:11:57.582Z,20.30
2022-12-09T05:12:59.307Z,22.30
2022-12-09T05:14:01.250Z,21.60
2022-12-09T05:15:03.546Z,20.00
2022-12-09T05:16:15.376Z,21.40
2022-12-09T05:17:18.195Z,21.20
2022-12-09T05:18:20.463Z,20.50
2022-12-09T05:19:22.677Z,24.00
2022-12-09T05:20:28.587Z,25.00
2022-12-09T05:21:30.428Z,22.20
2022-12-09T05:22:33.070Z,25.10
2022-12-09T05:23:36.305Z,25.20
2022-12-09T05:24:40.582Z,26.50
2022-12-09T05:25:42.301Z,27.40
2022-12-09T05:26:44.577Z,29.00
2022-12-09T05:27:46.620Z,28.00
2022-12-09T05:28:49.487Z,26.80
2022-12-09T05:29:51.531Z,31.00
2022-12-09T05:30:53.352Z,27.70
2022-12-09T05:31:55.367Z,25.60
2022-12-09T05:32:57.574Z,26.70
2022-12-09T05:33:59.820Z,29.80
2022-12-09T05:35:01.991Z,26.70
2022-12-09T05:36:07.768Z,30.80
2022-12-09T05:37:14.718Z,36.80
2022-12-09T05:38:16.782Z,34.90
2022-12-09T05:39:18.759Z,35.60
2022-12-09T05:40:21.161Z,35.50
2022-12-09T05:41:24.265Z,34.40
2022-12-09T05:42:26.417Z,32.50
2022-12-09T05:43:28.284Z,33.90
2022-12-09T05:44:30.266Z,34.50
2022-12-09T05:45:31.876Z,35.20
2022-12-09T05:46:33.822Z,33.20
2022-12-09T05:47:36.813Z,31.60
2022-12-09T05:48:39.120Z,27.30
2022-12-09T05:49:41.520Z,25.50
2022-12-09T05:50:43.382Z,28.60
2022-12-09T05:51:45.086Z,27.20
2022-12-09T05:52:47.223Z,29.00
2022-12-09T05:53:49.284Z,28.90
2022-12-09T05:54:51.258Z,24.70
2022-12-09T05:55:53.345Z,26.20
2022-12-09T05:56:57.418Z,25.00
2022-12-09T05:57:59.694Z,24.80
2022-12-09T05:59:01.935Z,24.00
2022-12-09T06:00:06.731Z,22.20
2022-12-09T06:01:14.365Z,23.80
2022-12-09T06:02:16.278Z,25.20
2022-12-09T06:03:18.749Z,22.20
2022-12-09T06:04:21.210Z,21.60
2022-12-09T06:05:23.044Z,21.60
2022-12-09T06:06:27.637Z,21.90
2022-12-09T06:07:30.315Z,18.00
2022-12-09T06:08:32.596Z,20.30
2022-12-09T06:09:34.622Z,19.50
2022-12-09T06:10:40.368Z,21.60
2022-12-09T06:11:42.559Z,20.40
2022-12-09T06:12:44.230Z,23.60
2022-12-09T06:13:47.306Z,22.80
2022-12-09T06:14:49.308Z,23.50
2022-12-09T06:15:51.290Z,22.40
2022-12-09T06:16:53.221Z,21.60
2022-12-09T06:17:55.982Z,20.10
2022-12-09T06:18:58.558Z,23.80
2022-12-09T06:20:00.501Z,24.10
2022-12-09T06:21:10.835Z,21.30
2022-12-09T06:22:12.758Z,21.30
2022-12-09T06:23:14.369Z,23.60
2022-12-09T06:24:16.077Z,22.10
2022-12-09T06:25:17.988Z,24.00
2022-12-09T06:26:26.379Z,23.10
2022-12-09T06:27:28.737Z,25.30
2022-12-09T06:28:31.309Z,24.90
2022-12-09T06:29:33.207Z,25.50
2022-12-09T06:30:35.985Z,22.30
2022-12-09T06:31:37.993Z,26.20
2022-12-09T06:32:40.110Z,24.20
2022-12-09T06:33:58.704Z,26.30
2022-12-09T06:35:01.578Z,26.30
2022-12-09T06:36:04.807Z,26.60
2022-12-09T06:37:06.496Z,25.30
2022-12-09T06:38:08.641Z,28.10
2022-12-09T06:39:11.440Z,30.10
2022-12-09T06:40:13.881Z,28.10
2022-12-09T06:41:16.257Z,26.00
2022-12-09T06:42:18.499Z,29.80
2022-12-09T06:43:20.650Z,26.00
2022-12-09T06:44:24.368Z,28.20
2022-12-09T06:45:26.438Z,27.20
2022-12-09T06:46:28.462Z,27.40
2022-12-09T06:47:30.514Z,30.80
2022-12-09T06:48:32.325Z,30.40
2022-12-09T06:49:34.434Z,30.90
2022-12-09T06:50:37.691Z,31.80
2022-12-09T06:51:39.865Z,35.50
2022-12-09T06:52:41.626Z,35.10
2022-12-09T06:53:45.073Z,34.10
2022-12-09T06:54:47.405Z,34.40
2022-12-09T06:55:49.451Z,34.10
2022-12-09T06:56:51.443Z,32.50
2022-12-09T06:57:53.464Z,34.10
2022-12-09T06:58:55.472Z,28.20
2022-12-09T06:59:57.474Z,31.70
2022-12-09T07:01:21.807Z,31.20
2022-12-09T07:02:24.295Z,32.80
2022-12-09T07:03:27.136Z,33.40
2022-12-09T07:04:29.397Z,33.30
2022-12-09T07:05:31.745Z,28.80
2022-12-09T07:06:39.580Z,35.90
2022-12-09T07:07:41.831Z,29.00
2022-12-09T07:08:44.888Z,30.80
2022-12-09T07:09:47.802Z,34.10
2022-12-09T07:10:56.102Z,31.50
2022-12-09T07:11:58.754Z,29.20
2022-12-09T07:13:00.545Z,30.70
2022-12-09T07:14:03.701Z,31.00
2022-12-09T07:15:06.866Z,28.30
2022-12-09T07:16:09.651Z,31.30
2022-12-09T07:17:19.967Z,32.60
2022-12-09T07:18:22.204Z,32.80
2022-12-09T07:19:24.187Z,30.80
2022-12-09T07:20:26.721Z,27.90
2022-12-09T07:21:29.761Z,27.40
2022-12-09T07:22:33.713Z,31.80
2022-12-09T07:23:36.425Z,31.40
2022-12-09T07:24:39.439Z,28.60
2022-12-09T07:25:41.341Z,31.80
2022-12-09T07:26:43.300Z,31.90
2022-12-09T07:27:45.326Z,32.60
2022-12-09T07:28:48.160Z,32.80
2022-12-09T07:29:49.923Z,31.40
2022-12-09T07:30:51.473Z,34.60
2022-12-09T07:31:53.531Z,29.90
2022-12-09T07:32:56.232Z,27.50
2022-12-09T07:33:59.367Z,33.00
2022-12-09T07:35:02.133Z,32.00
2022-12-09T07:36:04.430Z,30.10
2022-12-09T07:37:07.758Z,28.50
2022-12-09T07:38:09.809Z,31.40
2022-12-09T07:39:14.192Z,27.40
2022-12-09T07:40:16.224Z,34.20
2022-12-09T07:41:18.540Z,27.00
2022-12-09T07:42:20.557Z,31.80
2022-12-09T07:43:28.339Z,27.80
2022-12-09T07:44:30.424Z,30.10
2022-12-09T07:45:36.576Z,29.10
2022-12-09T07:46:39.022Z,28.50
2022-12-09T07:47:41.642Z,29.90
2022-12-09T07:48:44.201Z,26.50
2022-12-09T07:49:46.218Z,28.60
2022-12-09T07:50:48.523Z,28.40
2022-12-09T07:51:50.796Z,26.40
2022-12-09T07:52:52.561Z,26.70
2022-12-09T07:53:55.603Z,29.10
2022-12-09T07:55:00.678Z,26.90
2022-12-09T07:56:08.591Z,28.90
2022-12-09T07:57:10.721Z,25.90
2022-12-09T07:58:12.940Z,25.90
2022-12-09T07:59:16.145Z,29.70
2022-12-09T08:00:18.325Z,27.70
2022-12-09T08:01:24.699Z,26.00
2022-12-09T08:02:26.481Z,28.10
2022-12-09T08:03:28.291Z,25.90
2022-12-09T08:04:31.181Z,29.30
2022-12-09T08:05:33.774Z,29.10
2022-12-09T08:06:36.689Z,28.00
2022-12-09T08:07:43.876Z,28.70
2022-12-09T08:08:47.567Z,26.60
2022-12-09T08:09:49.793Z,27.20
2022-12-09T08:10:51.731Z,27.40
2022-12-09T08:11:54.028Z,25.20
2022-12-09T08:12:56.715Z,26.40
2022-12-09T08:14:07.184Z,22.90
2022-12-09T08:15:11.508Z,25.80
2022-12-09T08:16:15.963Z,22.90
2022-12-09T08:17:17.833Z,23.10
2022-12-09T08:18:19.704Z,23.50
2022-12-09T08:19:21.942Z,21.80
2022-12-09T08:20:29.125Z,25.40
2022-12-09T08:21:32.078Z,24.00
2022-12-09T08:22:34.314Z,26.50
2022-12-09T08:23:37.264Z,24.80
2022-12-09T08:24:39.136Z,23.90
2022-12-09T08:25:41.753Z,23.40
2022-12-09T08:26:43.904Z,24.70
2022-12-09T08:27:46.344Z,25.50
2022-12-09T08:28:48.738Z,23.10
2022-12-09T08:29:50.862Z,25.40
2022-12-09T08:30:53.035Z,27.50
2022-12-09T08:31:55.236Z,24.40
2022-12-09T08:32:57.235Z,24.60
2022-12-09T08:34:03.199Z,23.40
2022-12-09T08:35:06.050Z,26.90
2022-12-09T08:36:14.737Z,25.30
2022-12-09T08:37:16.990Z,22.90
2022-12-09T08:38:19.144Z,23.20
2022-12-09T08:39:20.827Z,27.20
2022-12-09T08:40:22.954Z,26.00
2022-12-09T08:41:36.823Z,25.40
2022-12-09T08:42:39.887Z,26.10
2022-12-09T08:43:43.619Z,26.80
2022-12-09T08:44:45.441Z,29.30
2022-12-09T08:45:47.648Z,28.10
2022-12-09T08:46:51.920Z,25.40
2022-12-09T08:47:54.137Z,24.20
2022-12-09T08:48:56.517Z,24.40
2022-12-09T08:49:58.471Z,28.80
2022-12-09T08:51:00.734Z,25.80
2022-12-09T08:52:03.167Z,23.40
2022-12-09T08:53:04.817Z,26.60
2022-12-09T08:54:06.968Z,27.80
2022-12-09T08:55:09.431Z,26.10
2022-12-09T08:56:13.852Z,27.20
2022-12-09T08:57:22.180Z,27.10
2022-12-09T08:58:24.383Z,31.00
2022-12-09T08:59:27.663Z,31.90
2022-12-09T09:00:30.428Z,27.90
2022-12-09T09:01:34.441Z,30.70
2022-12-09T09:02:36.609Z,30.60
2022-12-09T09:03:39.351Z,27.90
2022-12-09T09:04:42.305Z,31.10
2022-12-09T09:05:44.463Z,34.90
2022-12-09T09:06:49.231Z,34.30
2022-12-09T09:07:51.355Z,30.80
2022-12-09T09:08:56.620Z,33.70
2022-12-09T09:10:00.454Z,30.90
2022-12-09T09:11:09.692Z,30.00
2022-12-09T09:12:12.064Z,28.40
2022-12-09T09:13:14.221Z,28.70
2022-12-09T09:14:16.531Z,30.60
2022-12-09T09:15:18.701Z,26.50
2022-12-09T09:16:23.736Z,23.10
2022-12-09T09:17:25.637Z,25.70
2022-12-09T09:18:27.829Z,24.30
2022-12-09T09:19:31.088Z,21.10
2022-12-09T09:20:32.947Z,24.60
2022-12-09T09:21:35.756Z,24.70
2022-12-09T09:22:37.814Z,24.50
2022-12-09T09:23:41.450Z,23.60
2022-12-09T09:24:43.104Z,24.70
2022-12-09T09:25:44.891Z,26.90
2022-12-09T09:26:47.679Z,21.40
2022-12-09T09:27:49.819Z,24.50
2022-12-09T09:28:52.352Z,22.70
2022-12-09T09:29:54.295Z,23.50
2022-12-09T09:31:01.592Z,23.00
2022-12-09T09:32:03.988Z,21.60
2022-12-09T09:33:07.636Z,24.00
2022-12-09T09:34:10.200Z,26.60
2022-12-09T09:35:12.625Z,22.10
2022-12-09T09:36:20.073Z,21.90
2022-12-09T09:37:22.006Z,21.80
2022-12-09T09:38:25.823Z,20.80
2022-12-09T09:39:28.090Z,23.30
2022-12-09T09:40:32.622Z,18.70
2022-12-09T09:41:44.381Z,20.00
2022-12-09T09:42:49.902Z,19.80
2022-12-09T09:43:53.838Z,20.30
2022-12-09T09:44:57.611Z,19.30
2022-12-09T09:45:59.618Z,19.40
2022-12-09T09:47:22.364Z,21.00
2022-12-09T09:48:31.410Z,20.90
2022-12-09T09:49:56.699Z,21.50
2022-12-09T09:51:04.450Z,19.60
2022-12-09T09:52:12.816Z,22.60
2022-12-09T09:53:20.814Z,19.40
2022-12-09T09:54:22.808Z,20.10
2022-12-09T09:55:35.402Z,17.50
2022-12-09T09:56:45.165Z,20.50
2022-12-09T09:57:54.353Z,18.40
2022-12-09T09:59:11.229Z,17.70
2022-12-09T10:00:35.544Z,19.60
2022-12-09T10:01:38.684Z,20.60
2022-12-09T10:02:58.765Z,20.20
2022-12-09T10:04:24.651Z,20.40
2022-12-09T10:05:49.125Z,19.10
2022-12-09T10:06:55.260Z,20.00
2022-12-09T10:08:22.831Z,17.80
2022-12-09T10:09:41.466Z,20.50
2022-12-09T10:11:06.121Z,23.60
2022-12-09T10:12:33.903Z,22.70
2022-12-09T10:14:08.869Z,25.20
2022-12-09T10:15:17.960Z,20.40
2022-12-09T10:16:33.031Z,20.70
2022-12-09T10:18:02.058Z,20.90
2022-12-09T10:19:31.917Z,22.50
2022-12-09T10:20:34.012Z,20.30
2022-12-09T10:21:41.116Z,22.50
2022-12-09T10:23:12.187Z,22.90
2022-12-09T10:24:20.947Z,20.10
2022-12-09T10:25:26.705Z,18.90
2022-12-09T10:26:31.340Z,15.00
2022-12-09T10:27:43.379Z,17.60
2022-12-09T10:29:07.040Z,17.10
2022-12-09T10:30:16.380Z,17.80
2022-12-09T10:31:23.491Z,17.00
2022-12-09T10:32:29.730Z,18.90
2022-12-09T10:33:38.155Z,16.90
2022-12-09T10:34:40.838Z,16.20
2022-12-09T10:35:43.229Z,19.30
2022-12-09T10:36:47.355Z,18.40
2022-12-09T10:37:54.372Z,19.60
2022-12-09T10:38:56.267Z,18.90
2022-12-09T10:40:04.318Z,22.50
2022-12-09T10:41:47.457Z,20.00
2022-12-09T10:43:14.512Z,18.80
2022-12-09T10:44:19.687Z,17.40
2022-12-09T10:45:22.404Z,18.20
2022-12-09T10:46:25.573Z,21.70
2022-12-09T10:47:29.069Z,16.80
2022-12-09T10:48:40.422Z,19.30
2022-12-09T10:50:45.619Z,18.30
2022-12-09T10:51:50.920Z,16.80
2022-12-09T10:52:53.485Z,18.10
2022-12-09T10:54:11.676Z,16.10
2022-12-09T10:55:28.684Z,16.60
2022-12-09T10:56:36.888Z,16.50
2022-12-09T10:57:38.765Z,18.60
2022-12-09T10:58:40.787Z,16.20
2022-12-09T11:00:05.269Z,15.80
2022-12-09T11:01:11.863Z,18.00
2022-12-09T11:02:21.961Z,17.40
2022-12-09T11:03:38.021Z,16.60
2022-12-09T11:04:42.891Z,18.10
2022-12-09T11:05:45.193Z,18.00
2022-12-09T11:06:52.736Z,15.40
2022-12-09T11:07:58.878Z,16.50
2022-12-09T11:09:03.195Z,16.00
2022-12-09T11:10:17.343Z,17.20
2022-12-09T11:11:41.171Z,19.20
2022-12-09T11:12:43.234Z,21.00
2022-12-09T11:13:45.709Z,19.40
2022-12-09T11:14:53.355Z,20.20
2022-12-09T11:15:58.694Z,18.80
2022-12-09T11:17:32.364Z,19.90
2022-12-09T11:18:46.323Z,20.80
2022-12-09T11:20:07.163Z,20.10
2022-12-09T11:21:31.719Z,19.90
2022-12-09T11:22:39.913Z,19.60
2022-12-09T11:23:58.835Z,20.50
2022-12-09T11:25:11.071Z,17.20
2022-12-09T11:26:23.099Z,18.30
2022-12-09T11:27:31.872Z,19.70
2022-12-09T11:28:38.834Z,19.50
2022-12-09T11:29:41.051Z,19.00
2022-12-09T11:31:12.102Z,21.10
2022-12-09T11:32:13.697Z,20.20
2022-12-09T11:33:30.840Z,18.60
2022-12-09T11:34:36.900Z,16.50
2022-12-09T11:35:44.909Z,17.00
2022-12-09T11:36:52.948Z,18.30
2022-12-09T11:37:55.945Z,19.80
2022-12-09T11:39:22.667Z,18.20
2022-12-09T11:40:27.673Z,17.70
2022-12-09T11:41:48.242Z,17.30
2022-12-09T11:42:53.046Z,15.30
2022-12-09T11:43:56.433Z,15.00
2022-12-09T11:45:22.254Z,17.30
2022-12-09T11:46:28.430Z,15.90
2022-12-09T11:49:03.177Z,13.40
2022-12-09T11:50:17.252Z,16.70
2022-12-09T11:51:40.695Z,17.80
2022-12-09T11:52:43.358Z,17.30
2022-12-09T11:53:45.522Z,14.90
2022-12-09T11:55:06.093Z,15.90
2022-12-09T11:56:15.198Z,15.60
2022-12-09T11:57:33.604Z,12.50
2022-12-09T11:59:11.116Z,12.40
2022-12-09T12:00:22.004Z,13.90
2022-12-09T12:01:42.632Z,14.40
2022-12-09T12:02:51.984Z,13.00
2022-12-09T12:04:01.429Z,12.20
2022-12-09T12:05:22.113Z,15.00
2022-12-09T12:07:32.247Z,13.30
2022-12-09T12:08:45.721Z,12.70
2022-12-09T12:09:54.943Z,13.30
2022-12-09T12:11:00.982Z,12.00
2022-12-09T12:12:54.423Z,15.60
2022-12-09T12:14:18.522Z,14.40
2022-12-09T12:15:52.375Z,12.60
2022-12-09T12:17:31.509Z,14.00
2022-12-09T12:18:43.590Z,14.20
2022-12-09T12:19:49.905Z,11.70
2022-12-09T12:21:19.122Z,15.30
2022-12-09T12:22:39.549Z,15.60
2022-12-09T12:25:19.365Z,14.80
2022-12-09T12:27:04.590Z,14.00
2022-12-09T12:28:22.763Z,17.80
2022-12-09T12:29:55.709Z,16.10
2022-12-09T12:31:27.810Z,15.10
2022-12-09T12:32:37.381Z,16.10
2022-12-09T12:35:20.746Z,14.30
2022-12-09T12:36:48.610Z,15.50
2022-12-09T12:38:11.820Z,14.10
2022-12-09T12:39:32.480Z,16.30
2022-12-09T12:41:57.249Z,17.60
2022-12-09T12:43:43.918Z,13.60
2022-12-09T12:45:11.045Z,18.30
2022-12-09T12:46:56.130Z,14.50
2022-12-09T12:48:11.928Z,16.40
2022-12-09T12:49:44.831Z,17.30
2022-12-09T12:50:49.402Z,17.40
2022-12-09T12:52:09.999Z,17.20
2022-12-09T12:53:27.634Z,17.00
2022-12-09T12:54:50.384Z,18.30
2022-12-09T12:56:04.594Z,15.80
2022-12-09T12:57:41.681Z,17.90
2022-12-09T12:59:07.724Z,17.00
2022-12-09T13:00:21.269Z,18.30
2022-12-09T13:01:32.456Z,19.20
2022-12-09T13:02:59.998Z,18.90
2022-12-09T13:04:28.545Z,19.30
2022-12-09T13:05:36.823Z,19.40
2022-12-09T13:07:05.559Z,20.30
2022-12-09T13:08:17.466Z,20.90
2022-12-09T13:09:37.177Z,21.00
2022-12-09T13:10:44.014Z,18.30
2022-12-09T13:12:07.230Z,19.10
2022-12-09T13:13:43.296Z,21.50
2022-12-09T13:14:52.353Z,18.80
2022-12-09T13:15:58.862Z,20.80
2022-12-09T13:17:04.766Z,19.90
2022-12-09T13:18:19.356Z,17.90
2022-12-09T13:19:34.498Z,19.20
2022-12-09T13:20:50.980Z,18.20
2022-12-09T13:21:54.032Z,22.50
2022-12-09T13:23:00.315Z,17.80
2022-12-09T13:24:14.890Z,18.00
2022-12-09T13:25:43.504Z,16.60
2022-12-09T13:27:23.051Z,16.20
2022-12-09T13:28:47.613Z,17.10
2022-12-09T13:30:05.015Z,19.00
2022-12-09T13:31:09.454Z,20.10
2022-12-09T13:32:52.629Z,17.80
2022-12-09T13:34:27.419Z,19.20
2022-12-09T13:35:33.415Z,18.40
2022-12-09T13:36:48.010Z,19.20
2022-12-09T13:37:51.967Z,21.00
2022-12-09T13:38:55.399Z,18.00
2022-12-09T13:39:58.064Z,18.60
2022-12-09T13:41:02.600Z,17.20
2022-12-09T13:42:46.581Z,17.60
2022-12-09T13:43:48.986Z,19.30
2022-12-09T13:45:04.522Z,17.60
2022-12-09T13:46:06.568Z,17.30
2022-12-09T13:47:34.736Z,16.40
2022-12-09T13:48:41.875Z,19.60
2022-12-09T13:49:55.041Z,19.20
2022-12-09T13:50:59.311Z,16.80
2022-12-09T13:52:00.929Z,16.00
2022-12-09T13:53:20.834Z,17.80
2022-12-09T13:54:29.050Z,20.80
2022-12-09T13:55:30.725Z,18.30
2022-12-09T13:56:35.761Z,16.90
2022-12-09T13:57:47.304Z,16.30
2022-12-09T13:58:54.925Z,18.90
2022-12-09T14:00:02.066Z,20.50
2022-12-09T14:01:25.844Z,19.80
2022-12-09T14:02:42.017Z,17.80
2022-12-09T14:04:20.169Z,18.20
2022-12-09T14:05:26.990Z,19.10
2022-12-09T14:06:40.147Z,20.70
2022-12-09T14:07:48.174Z,18.90
2022-12-09T14:08:55.130Z,17.70
2022-12-09T14:09:57.982Z,19.00
2022-12-09T14:11:37.888Z,18.50
2022-12-09T14:12:44.057Z,17.90
2022-12-09T14:13:47.143Z,17.60
2022-12-09T14:15:12.367Z,18.60
2022-12-09T14:16:29.234Z,18.70
2022-12-09T14:17:31.076Z,18.20
2022-12-09T14:18:33.608Z,21.20
2022-12-09T14:19:52.894Z,19.60
2022-12-09T14:21:17.015Z,19.00
2022-12-09T14:22:19.534Z,19.80
2022-12-09T14:23:21.953Z,17.90
2022-12-09T14:24:23.597Z,19.60
2022-12-09T14:25:25.128Z,16.80
2022-12-09T14:26:38.700Z,18.50
2022-12-09T14:28:23.631Z,18.40
2022-12-09T14:29:48.947Z,16.90
2022-12-09T14:31:03.411Z,19.60
2022-12-09T14:32:21.204Z,19.10
2022-12-09T14:33:52.572Z,20.50
2022-12-09T14:35:22.487Z,17.70
2022-12-09T14:36:30.984Z,18.90
2022-12-09T14:37:55.826Z,20.00
2022-12-09T14:39:24.679Z,20.30
2022-12-09T14:40:37.307Z,22.20
2022-12-09T14:42:04.940Z,20.10